Time;durP1;ratioP1;P1;durP2;ratioP2;P2;SDS_P1;SDS_P2;PMS_P1;PMS_P2;Temp;Humidity;BMP_temperature;BMP_pressure;BME280_temperature;BME280_humidity;BME280_pressure;Samples;Min_cycle;Max_cycle;Signal;HPM_P1;HPM_P2
2022/06/06 00:01:15;;;;;;;7.47;1.80;;;;;;;;;;5027393;28;20110;-72
2022/06/06 00:03:41;;;;;;;10.45;2.33;;;;;;;;;;5044780;28;20090;-72
2022/06/06 00:06:13;;;;;;;4.30;2.10;;;;;;;;;;5027117;28;20025;-72
2022/06/06 00:08:39;;;;;;;5.53;2.20;;;;;;;;;;5044217;28;20477;-73
2022/06/06 00:11:05;;;;;;;1.92;1.83;;;;;;;;;;5044567;28;20465;-72
2022/06/06 00:13:31;;;;;;;5.18;1.80;;;;;;;;;;5026687;28;20503;-72
2022/06/06 00:15:57;;;;;;;5.47;2.45;;;;;;;;;;5044472;28;20151;-72
2022/06/06 00:18:23;;;;;;;6.13;1.90;;;;;;;;;;5044380;28;20036;-72
2022/06/06 00:20:48;;;;;;;4.70;2.15;;;;;;;;;;5026289;28;20500;-72
2022/06/06 00:23:15;;;;;;;2.42;1.45;;;;;;;;;;5026458;28;20132;-72
2022/06/06 00:25:40;;;;;;;2.38;1.90;;;;;;;;;;5044628;28;20132;-72
2022/06/06 00:28:06;;;;;;;3.47;1.52;;;;;;;;;;5044390;28;20111;-72
2022/06/06 00:30:31;;;;;;;6.38;2.30;;;;;;;;;;5043190;28;20036;-73
2022/06/06 00:35:41;;;;;;;3.00;1.70;;;;;;;;;;5025404;28;20607;-72
2022/06/06 00:38:07;;;;;;;1.80;1.55;;;;;;;;;;5044285;28;20420;-73
2022/06/06 00:40:33;;;;;;;2.28;2.05;;;;;;;;;;5043571;28;20033;-72
2022/06/06 00:42:59;;;;;;;6.22;1.88;;;;;;;;;;5044281;28;20044;-73
2022/06/06 00:45:35;;;;;;;2.08;1.80;;;;;;;;;;5026977;28;20075;-72
2022/06/06 00:48:33;;;;;;;2.28;1.95;;;;;;;;;;5046059;28;20384;-73
2022/06/06 00:50:58;;;;;;;8.48;1.92;;;;;;;;;;5045207;28;20393;-72
2022/06/06 00:53:32;;;;;;;4.13;2.08;;;;;;;;;;5044534;28;20029;-72
2022/06/06 00:56:06;;;;;;;3.85;2.00;;;;;;;;;;5043335;28;20530;-72
2022/06/06 00:58:33;;;;;;;3.13;2.10;;;;;;;;;;5026189;28;20511;-72
2022/06/06 01:00:59;;;;;;;5.05;2.15;;;;;;;;;;5026788;28;20056;-72
2022/06/06 01:03:28;;;;;;;2.33;1.95;;;;;;;;;;5025983;28;20068;-72
2022/06/06 01:05:56;;;;;;;7.70;1.85;;;;;;;;;;5025304;28;20028;-72
2022/06/06 01:08:22;;;;;;;4.15;2.40;;;;;;;;;;5044136;28;20048;-72
2022/06/06 01:10:48;;;;;;;5.78;2.10;;;;;;;;;;5025431;28;20455;-72
2022/06/06 01:13:16;;;;;;;5.38;1.98;;;;;;;;;;5025850;28;20048;-72
2022/06/06 01:15:55;;;;;;;3.95;2.20;;;;;;;;;;5024717;28;20125;-72
2022/06/06 01:19:04;;;;;;;6.35;2.17;;;;;;;;;;5041474;28;20097;-72
2022/06/06 01:21:54;;;;;;;5.80;2.10;;;;;;;;;;4998434;28;20063;-72
2022/06/06 01:24:48;;;;;;;5.45;2.22;;;;;;;;;;5044465;28;20099;-72
2022/06/06 01:27:55;;;;;;;2.60;1.98;;;;;;;;;;5025995;28;20036;-72
2022/06/06 01:30:25;;;;;;;4.63;2.33;;;;;;;;;;5025993;28;20040;-72
2022/06/06 01:32:57;;;;;;;5.35;2.22;;;;;;;;;;5026051;28;20052;-72
2022/06/06 01:35:34;;;;;;;2.03;1.92;;;;;;;;;;5043887;28;20041;-72
2022/06/06 01:38:00;;;;;;;4.15;1.90;;;;;;;;;;5043307;28;20032;-72
2022/06/06 01:40:32;;;;;;;3.85;2.20;;;;;;;;;;5043219;28;20099;-72
2022/06/06 01:43:06;;;;;;;5.65;1.90;;;;;;;;;;5043519;28;20028;-72
2022/06/06 01:45:47;;;;;;;6.18;2.15;;;;;;;;;;5008018;28;20044;-72
2022/06/06 01:48:17;;;;;;;6.77;2.40;;;;;;;;;;5024624;28;21025;-72
2022/06/06 01:50:44;;;;;;;12.90;2.15;;;;;;;;;;5042657;28;20380;-72
2022/06/06 01:53:15;;;;;;;2.50;2.28;;;;;;;;;;5043417;28;20035;-72
2022/06/06 01:55:43;;;;;;;2.00;1.90;;;;;;;;;;5024902;28;20061;-72
2022/06/06 01:58:16;;;;;;;5.05;2.10;;;;;;;;;;5003122;28;20048;-72
2022/06/06 02:00:42;;;;;;;9.98;2.33;;;;;;;;;;5040620;28;20378;-72
2022/06/06 02:03:08;;;;;;;4.72;2.15;;;;;;;;;;5042830;28;20481;-72
2022/06/06 02:05:34;;;;;;;5.78;2.40;;;;;;;;;;5042307;28;20814;-72
2022/06/06 02:08:00;;;;;;;4.13;2.20;;;;;;;;;;5043647;28;20112;-72
2022/06/06 02:10:26;;;;;;;4.85;2.08;;;;;;;;;;5024556;28;20040;-72
2022/06/06 02:12:51;;;;;;;6.43;2.78;;;;;;;;;;5026009;28;20085;-72
2022/06/06 02:15:22;;;;;;;2.67;2.47;;;;;;;;;;5042461;28;20025;-72
2022/06/06 02:17:48;;;;;;;10.27;3.28;;;;;;;;;;5042126;28;20044;-72
2022/06/06 02:20:15;;;;;;;8.77;2.70;;;;;;;;;;5041362;28;20041;-72
2022/06/06 02:22:41;;;;;;;7.60;2.92;;;;;;;;;;5042262;28;20110;-72
2022/06/06 02:25:07;;;;;;;4.30;3.03;;;;;;;;;;5041661;28;20044;-72
2022/06/06 02:27:35;;;;;;;11.15;3.15;;;;;;;;;;5042293;28;20032;-73
2022/06/06 02:30:03;;;;;;;4.45;3.28;;;;;;;;;;5040571;28;20393;-73
2022/06/06 02:32:28;;;;;;;5.18;2.90;;;;;;;;;;5040078;28;20029;-73
2022/06/06 02:34:53;;;;;;;4.82;3.17;;;;;;;;;;5023275;28;20033;-74
2022/06/06 02:37:19;;;;;;;5.53;2.70;;;;;;;;;;5040980;28;20068;-74
2022/06/06 02:39:45;;;;;;;4.97;3.17;;;;;;;;;;5040927;28;20083;-73
2022/06/06 02:42:10;;;;;;;3.10;2.80;;;;;;;;;;5040208;28;20041;-73
2022/06/06 02:44:36;;;;;;;6.53;2.60;;;;;;;;;;5041293;28;20040;-73
2022/06/06 02:47:03;;;;;;;6.43;2.47;;;;;;;;;;5022633;28;20047;-73
2022/06/06 02:49:29;;;;;;;7.18;2.90;;;;;;;;;;5040108;28;20037;-73
2022/06/06 02:51:55;;;;;;;5.82;2.85;;;;;;;;;;5040856;28;20397;-74
2022/06/06 02:54:20;;;;;;;6.65;2.60;;;;;;;;;;5042190;28;20033;-72
2022/06/06 02:56:46;;;;;;;6.03;2.65;;;;;;;;;;5040396;28;20059;-72
2022/06/06 02:59:15;;;;;;;10.73;2.55;;;;;;;;;;5044318;28;20512;-72
2022/06/06 03:01:40;;;;;;;4.65;2.47;;;;;;;;;;5045281;28;20032;-72
2022/06/06 03:04:06;;;;;;;5.78;2.63;;;;;;;;;;5046070;28;20037;-72
2022/06/06 03:06:44;;;;;;;9.25;2.90;;;;;;;;;;5011361;28;20044;-72
2022/06/06 03:09:54;;;;;;;5.57;2.60;;;;;;;;;;5046326;28;20036;-72
2022/06/06 03:12:35;;;;;;;6.03;2.83;;;;;;;;;;5043425;28;20068;-72
2022/06/06 03:15:15;;;;;;;5.13;3.63;;;;;;;;;;5045294;28;20051;-72
2022/06/06 03:20:50;;;;;;;3.88;2.78;;;;;;;;;;5044895;28;20040;-72
2022/06/06 03:24:00;;;;;;;5.60;2.72;;;;;;;;;;5043682;28;20185;-72
2022/06/06 03:26:43;;;;;;;5.28;2.90;;;;;;;;;;5037624;28;21758;-72
2022/06/06 03:29:30;;;;;;;4.07;3.10;;;;;;;;;;5028390;28;20068;-72
2022/06/06 03:32:22;;;;;;;12.98;3.10;;;;;;;;;;5028113;28;20047;-72
2022/06/06 03:35:03;;;;;;;;;;;;;;;;;;5031056;28;20036;-71
2022/06/06 03:38:01;;;;;;;3.75;3.00;;;;;;;;;;5027934;28;19917;-72
2022/06/06 03:40:38;;;;;;;7.63;2.70;;;;;;;;;;5010953;28;20565;-71
2022/06/06 03:43:31;;;;;;;7.50;2.83;;;;;;;;;;5027847;28;20052;-71
2022/06/06 03:46:04;;;;;;;3.42;3.08;;;;;;;;;;5045163;28;20037;-72
2022/06/06 03:48:46;;;;;;;5.57;2.88;;;;;;;;;;5028154;28;20045;-72
2022/06/06 03:51:43;;;;;;;5.50;3.05;;;;;;;;;;5045748;28;20117;-72
2022/06/06 03:54:08;;;;;;;6.85;2.90;;;;;;;;;;5045467;28;20072;-72
2022/06/06 03:56:46;;;;;;;4.78;3.20;;;;;;;;;;5042245;28;20064;-72
2022/06/06 03:59:14;;;;;;;4.57;3.10;;;;;;;;;;5042186;28;20063;-72
2022/06/06 04:01:41;;;;;;;8.63;3.75;;;;;;;;;;5043199;28;20024;-73
2022/06/06 04:04:08;;;;;;;6.13;3.45;;;;;;;;;;5043970;28;20072;-73
2022/06/06 04:06:34;;;;;;;8.15;4.05;;;;;;;;;;5025400;28;20119;-72
2022/06/06 04:09:00;;;;;;;4.80;3.58;;;;;;;;;;5042677;28;20049;-74
2022/06/06 04:11:29;;;;;;;4.78;3.40;;;;;;;;;;5041548;28;20048;-73
2022/06/06 04:14:09;;;;;;;6.45;3.00;;;;;;;;;;5042979;28;20571;-73
2022/06/06 04:16:50;;;;;;;4.78;2.83;;;;;;;;;;5025292;28;20039;-72
2022/06/06 04:19:34;;;;;;;2.90;2.50;;;;;;;;;;5042824;28;20097;-73
2022/06/06 04:22:23;;;;;;;4.30;2.55;;;;;;;;;;5042250;28;20044;-73
2022/06/06 04:25:13;;;;;;;5.30;2.55;;;;;;;;;;5042688;28;20086;-73
2022/06/06 04:27:58;;;;;;;4.13;2.33;;;;;;;;;;5025329;28;20058;-73
2022/06/06 04:30:42;;;;;;;5.07;2.60;;;;;;;;;;5042770;28;20058;-72
2022/06/06 04:33:15;;;;;;;6.90;2.70;;;;;;;;;;5044062;28;20044;-73
2022/06/06 04:35:48;;;;;;;2.75;2.53;;;;;;;;;;5044667;28;20033;-72
2022/06/06 04:38:25;;;;;;;4.55;3.10;;;;;;;;;;5043887;28;20063;-72
2022/06/06 04:41:04;;;;;;;3.95;2.72;;;;;;;;;;5025085;28;20029;-72
2022/06/06 04:43:46;;;;;;;3.55;2.50;;;;;;;;;;5042925;28;20033;-72
2022/06/06 04:46:23;;;;;;;;;;;;;;;;;;5043962;28;20044;-73
2022/06/06 04:48:50;;;;;;;3.40;2.50;;;;;;;;;;5025101;28;20015;-72
2022/06/06 04:51:19;;;;;;;4.90;2.50;;;;;;;;;;5025098;28;20132;-73
2022/06/06 04:53:47;;;;;;;2.85;2.28;;;;;;;;;;5043590;28;20029;-72
2022/06/06 04:56:15;;;;;;;3.80;2.30;;;;;;;;;;5024465;28;20866;-72
2022/06/06 04:58:42;;;;;;;3.40;2.60;;;;;;;;;;5043792;28;20106;-72
2022/06/06 05:01:10;;;;;;;2.47;2.20;;;;;;;;;;5043550;28;20032;-72
2022/06/06 05:03:35;;;;;;;4.68;2.83;;;;;;;;;;5025047;28;20035;-72
2022/06/06 05:06:23;;;;;;;2.78;2.28;;;;;;;;;;5042492;28;20033;-73
2022/06/06 05:09:22;;;;;;;3.88;2.38;;;;;;;;;;5024186;28;20115;-72
2022/06/06 05:12:03;;;;;;;2.42;2.22;;;;;;;;;;5041733;28;20099;-71
2022/06/06 05:14:47;;;;;;;4.03;2.47;;;;;;;;;;5024224;28;20036;-71
2022/06/06 05:17:28;;;;;;;3.30;2.20;;;;;;;;;;5041165;28;20545;-72
2022/06/06 05:20:16;;;;;;;4.40;2.28;;;;;;;;;;5023574;28;20083;-72
2022/06/06 05:23:30;;;;;;;4.72;2.50;;;;;;;;;;5042673;28;20066;-73
2022/06/06 05:25:58;;;;;;;2.67;2.40;;;;;;;;;;4960434;28;20069;-73
2022/06/06 05:28:24;;;;;;;4.22;2.25;;;;;;;;;;4957668;28;20043;-72
2022/06/06 05:30:58;;;;;;;2.25;2.00;;;;;;;;;;5003797;28;20040;-72
2022/06/06 05:33:37;;;;;;;3.33;2.17;;;;;;;;;;5006724;28;20051;-72
2022/06/06 05:36:29;;;;;;;4.82;2.45;;;;;;;;;;5022937;28;20043;-72
2022/06/06 05:39:02;;;;;;;4.45;2.30;;;;;;;;;;5022404;28;20029;-72
2022/06/06 05:41:56;;;;;;;4.78;2.50;;;;;;;;;;5023323;28;20044;-72
2022/06/06 05:44:33;;;;;;;9.27;2.20;;;;;;;;;;5041418;28;20215;-72
2022/06/06 05:47:42;;;;;;;2.67;2.20;;;;;;;;;;5041582;28;20389;-72
2022/06/06 05:50:46;;;;;;;2.92;2.17;;;;;;;;;;4958995;28;20105;-72
2022/06/06 05:53:39;;;;;;;5.80;2.42;;;;;;;;;;4960292;28;20038;-72
2022/06/06 05:56:41;;;;;;;3.67;2.33;;;;;;;;;;5030598;28;20119;-72
2022/06/06 05:59:32;;;;;;;5.05;2.78;;;;;;;;;;5023096;28;20072;-72
2022/06/06 06:02:15;;;;;;;9.05;2.28;;;;;;;;;;5040699;28;20067;-72
2022/06/06 06:04:57;;;;;;;7.18;1.90;;;;;;;;;;5040782;28;20040;-72
2022/06/06 06:07:32;;;;;;;3.63;1.77;;;;;;;;;;5040617;28;20512;-72
2022/06/06 06:10:12;;;;;;;1.83;1.60;;;;;;;;;;5041188;28;20033;-72
2022/06/06 06:12:47;;;;;;;4.95;1.83;;;;;;;;;;5038922;28;20040;-72
2022/06/06 06:15:38;;;;;;;5.88;1.55;;;;;;;;;;5040728;28;20021;-72
2022/06/06 06:18:09;;;;;;;2.80;1.53;;;;;;;;;;5040488;28;20037;-72
2022/06/06 06:20:41;;;;;;;2.15;1.50;;;;;;;;;;5023015;28;20037;-72
2022/06/06 06:23:07;;;;;;;;;;;;;;;;;;5023153;28;20032;-72
2022/06/06 06:25:35;;;;;;;2.00;1.40;;;;;;;;;;5040554;28;19917;-72
2022/06/06 06:28:10;;;;;;;1.98;1.45;;;;;;;;;;5041250;28;20033;-72
2022/06/06 06:31:19;;;;;;;2.95;1.60;;;;;;;;;;5040690;28;20032;-71
2022/06/06 06:34:09;;;;;;;3.28;1.60;;;;;;;;;;5039961;28;20092;-73
2022/06/06 06:36:42;;;;;;;2.50;1.58;;;;;;;;;;5040253;28;20826;-73
2022/06/06 06:39:39;;;;;;;2.35;1.60;;;;;;;;;;5040469;28;20106;-74
2022/06/06 06:42:17;;;;;;;6.40;1.90;;;;;;;;;;5006517;28;20065;-73
2022/06/06 06:44:51;;;;;;;4.20;1.75;;;;;;;;;;5007983;28;20548;-72
2022/06/06 06:47:28;;;;;;;5.82;1.48;;;;;;;;;;5022716;28;20036;-73
2022/06/06 06:50:01;;;;;;;1.52;1.27;;;;;;;;;;5040558;28;20101;-75
2022/06/06 06:52:46;;;;;;;3.30;1.30;;;;;;;;;;5040856;28;20033;-75
2022/06/06 06:55:22;;;;;;;1.52;1.33;;;;;;;;;;5040072;28;20531;-75
2022/06/06 06:57:50;;;;;;;4.03;1.75;;;;;;;;;;5040654;28;20033;-75
2022/06/06 07:00:19;;;;;;;3.90;1.77;;;;;;;;;;5019358;28;20044;-75
2022/06/06 07:09:19;;;;;;;2.50;1.40;;;;;;;;;;5039185;28;20065;-74
2022/06/06 07:11:59;;;;;;;1.75;1.60;;;;;;;;;;5036219;28;20450;-75
2022/06/06 07:14:48;;;;;;;4.03;1.58;;;;;;;;;;5035209;28;20048;-76
2022/06/06 07:17:15;;;;;;;4.15;1.52;;;;;;;;;;5018784;28;20045;-75
2022/06/06 07:19:59;;;;;;;3.20;1.60;;;;;;;;;;5038552;28;20107;-75
2022/06/06 07:22:59;;;;;;;4.85;1.63;;;;;;;;;;5039124;28;20764;-75
2022/06/06 07:25:15;;;;;;;4.63;1.60;;;;;;;;;;5038109;28;20060;-79
2022/06/06 07:27:41;;;;;;;3.00;1.58;;;;;;;;;;5038004;28;20194;-77
2022/06/06 07:30:07;;;;;;;2.00;1.63;;;;;;;;;;5019819;28;20037;-73
2022/06/06 07:32:49;;;;;;;2.38;1.50;;;;;;;;;;5020922;28;20044;-76
2022/06/06 07:35:39;;;;;;;3.10;1.80;;;;;;;;;;5042426;28;20465;-78
2022/06/06 07:38:25;;;;;;;3.40;2.00;;;;;;;;;;5040492;28;20044;-74
2022/06/06 07:41:04;;;;;;;1.92;1.73;;;;;;;;;;5038535;28;20099;-77
2022/06/06 07:43:51;;;;;;;6.82;1.77;;;;;;;;;;5039109;28;20977;-72
2022/06/06 07:46:33;;;;;;;3.58;1.70;;;;;;;;;;5042961;28;20055;-73
2022/06/06 07:49:04;;;;;;;5.43;2.00;;;;;;;;;;5042859;28;20481;-75
2022/06/06 07:51:45;;;;;;;4.30;1.85;;;;;;;;;;5041884;28;20040;-72
2022/06/06 07:54:17;;;;;;;3.85;1.70;;;;;;;;;;5042647;28;20517;-75
2022/06/06 07:57:01;;;;;;;4.28;2.00;;;;;;;;;;5023955;28;21128;-73
2022/06/06 07:59:40;;;;;;;2.42;1.80;;;;;;;;;;5024586;28;20037;-73
2022/06/06 08:02:25;;;;;;;2.22;1.65;;;;;;;;;;5044476;28;20036;-74
2022/06/06 08:05:03;;;;;;;3.80;1.70;;;;;;;;;;5025289;28;20131;-74
2022/06/06 08:07:31;;;;;;;2.00;1.80;;;;;;;;;;5042186;28;20033;-74
2022/06/06 08:10:28;;;;;;;4.10;1.50;;;;;;;;;;5043233;28;20033;-73
2022/06/06 08:13:24;;;;;;;3.03;1.92;;;;;;;;;;5032744;28;20451;-72
2022/06/06 08:16:00;;;;;;;3.15;1.65;;;;;;;;;;5041463;28;20060;-71
2022/06/06 08:18:48;;;;;;;2.70;1.88;;;;;;;;;;5023563;28;20086;-76
2022/06/06 08:21:39;;;;;;;8.57;1.98;;;;;;;;;;5021705;28;20602;-75
2022/06/06 08:24:07;;;;;;;4.47;1.88;;;;;;;;;;5028813;28;20985;-71
2022/06/06 08:26:38;;;;;;;2.40;1.70;;;;;;;;;;5023138;28;20439;-72
2022/06/06 08:29:09;;;;;;;3.95;1.60;;;;;;;;;;5041349;28;20037;-72
2022/06/06 08:31:35;;;;;;;5.70;1.88;;;;;;;;;;5040635;28;20140;-73
2022/06/06 08:34:01;;;;;;;3.13;1.40;;;;;;;;;;5042248;28;20033;-75
2022/06/06 08:36:33;;;;;;;1.77;1.55;;;;;;;;;;5041285;28;20071;-73
2022/06/06 08:39:16;;;;;;;2.08;1.45;;;;;;;;;;5042286;28;20634;-73
2022/06/06 08:41:52;;;;;;;1.65;1.50;;;;;;;;;;5044494;28;20111;-74
2022/06/06 08:44:51;;;;;;;3.70;1.63;;;;;;;;;;5040645;28;20712;-75
2022/06/06 08:47:25;;;;;;;1.92;1.45;;;;;;;;;;4987615;28;21036;-76
2022/06/06 08:53:18;;;;;;;1.95;1.50;;;;;;;;;;5042505;28;20036;-73
2022/06/06 08:56:07;;;;;;;1.55;1.45;;;;;;;;;;5040910;28;20055;-73
2022/06/06 08:58:32;;;;;;;2.95;1.83;;;;;;;;;;5042550;28;20044;-72
2022/06/06 09:01:12;;;;;;;1.60;1.50;;;;;;;;;;5041935;28;20036;-72
2022/06/06 09:04:13;;;;;;;2.83;1.50;;;;;;;;;;5042166;28;20156;-72
2022/06/06 09:06:51;;;;;;;3.95;1.60;;;;;;;;;;5023380;28;20056;-71
2022/06/06 09:09:41;;;;;;;2.72;1.60;;;;;;;;;;5023619;28;20468;-71
2022/06/06 09:12:30;;;;;;;4.50;1.65;;;;;;;;;;5042292;28;20165;-71
2022/06/06 09:15:19;;;;;;;1.65;1.38;;;;;;;;;;5042092;28;20032;-71
2022/06/06 09:18:23;;;;;;;3.28;1.50;;;;;;;;;;5040569;28;20036;-70
2022/06/06 09:21:05;;;;;;;1.70;1.58;;;;;;;;;;5041476;28;20029;-71
2022/06/06 09:23:30;;;;;;;3.25;1.65;;;;;;;;;;5041354;28;20039;-71
2022/06/06 09:25:59;;;;;;;1.98;1.58;;;;;;;;;;5045813;28;20524;-70
2022/06/06 09:29:07;;;;;;;2.40;1.60;;;;;;;;;;5041180;28;20036;-69
2022/06/06 09:31:44;;;;;;;4.35;2.00;;;;;;;;;;4972903;28;20078;-71
2022/06/06 09:34:17;;;;;;;2.72;1.80;;;;;;;;;;5042043;28;20025;-71
2022/06/06 09:37:07;;;;;;;4.20;1.92;;;;;;;;;;5041628;28;20031;-71
2022/06/06 09:39:43;;;;;;;2.40;1.50;;;;;;;;;;5041867;28;20032;-71
2022/06/06 09:42:15;;;;;;;2.38;1.58;;;;;;;;;;5042084;28;20036;-71
2022/06/06 09:45:09;;;;;;;2.83;2.00;;;;;;;;;;5042066;28;20083;-71
2022/06/06 09:48:09;;;;;;;2.40;1.40;;;;;;;;;;5042012;28;20041;-72
2022/06/06 09:50:53;;;;;;;3.75;1.67;;;;;;;;;;5040755;28;20048;-72
2022/06/06 09:53:39;;;;;;;4.07;2.42;;;;;;;;;;5041760;28;20464;-72
2022/06/06 09:59:32;;;;;;;3.72;1.60;;;;;;;;;;5042392;28;20029;-71
2022/06/06 10:02:20;;;;;;;2.17;1.50;;;;;;;;;;5040487;28;20060;-71
2022/06/06 10:05:02;;;;;;;2.17;1.58;;;;;;;;;;5023689;28;20045;-71
2022/06/06 10:07:49;;;;;;;3.10;1.75;;;;;;;;;;5040777;28;20033;-72
2022/06/06 10:10:36;;;;;;;2.60;1.80;;;;;;;;;;5040986;28;20025;-72
2022/06/06 10:13:43;;;;;;;3.85;1.60;;;;;;;;;;5023475;28;20025;-71
2022/06/06 10:16:26;;;;;;;4.93;1.70;;;;;;;;;;5001348;28;20044;-71
2022/06/06 10:19:05;;;;;;;5.63;1.50;;;;;;;;;;5041914;28;20065;-72
2022/06/06 10:21:43;;;;;;;2.95;1.50;;;;;;;;;;5040579;28;21016;-71
2022/06/06 10:24:52;;;;;;;2.40;1.58;;;;;;;;;;5040529;28;20045;-71
2022/06/06 10:27:49;;;;;;;3.97;1.70;;;;;;;;;;5040554;28;20041;-72
2022/06/06 10:30:22;;;;;;;3.72;1.52;;;;;;;;;;5040535;28;20064;-71
2022/06/06 10:33:06;;;;;;;5.32;1.73;;;;;;;;;;5040800;28;20139;-71
2022/06/06 10:35:55;;;;;;;1.65;1.52;;;;;;;;;;5040169;28;20032;-71
2022/06/06 10:38:45;;;;;;;3.15;1.50;;;;;;;;;;5040932;28;20037;-71
2022/06/06 10:41:36;;;;;;;2.67;1.70;;;;;;;;;;5040641;28;20037;-71
2022/06/06 10:44:19;;;;;;;2.90;1.60;;;;;;;;;;5041228;28;20106;-71
2022/06/06 10:47:07;;;;;;;4.65;1.70;;;;;;;;;;5040580;28;20044;-70
2022/06/06 10:49:51;;;;;;;3.42;1.83;;;;;;;;;;5022702;28;20067;-72
2022/06/06 10:52:37;;;;;;;3.47;1.50;;;;;;;;;;5022477;28;20580;-72
2022/06/06 10:55:24;;;;;;;5.25;1.65;;;;;;;;;;5007917;28;20079;-71
2022/06/06 10:58:47;;;;;;;2.28;1.40;;;;;;;;;;5037301;28;20067;-69
2022/06/06 11:01:42;;;;;;;1.95;1.38;;;;;;;;;;4958624;28;20042;-69
2022/06/06 11:04:11;;;;;;;4.60;1.50;;;;;;;;;;4958997;28;20687;-69
2022/06/06 11:07:03;;;;;;;3.58;1.60;;;;;;;;;;5013771;28;20040;-70
2022/06/06 11:09:41;;;;;;;3.17;1.40;;;;;;;;;;5040226;28;20618;-70
2022/06/06 11:12:18;;;;;;;3.50;1.45;;;;;;;;;;5040172;28;20047;-70
2022/06/06 11:14:44;;;;;;;6.00;5.40;;;;;;;;;;5040254;28;20039;-69
2022/06/06 11:17:35;;;;;;;7.82;7.13;;;;;;;;;;5036248;28;20032;-69
2022/06/06 11:20:23;;;;;;;4.75;2.70;;;;;;;;;;5039068;28;20040;-72
2022/06/06 11:23:15;;;;;;;5.53;3.53;;;;;;;;;;5042788;28;20036;-72
2022/06/06 11:26:03;;;;;;;12.38;2.67;;;;;;;;;;5041839;28;20056;-72
2022/06/06 11:28:56;;;;;;;5.07;2.92;;;;;;;;;;5039798;28;20079;-71
2022/06/06 11:31:22;;;;;;;3.20;1.75;;;;;;;;;;5041630;28;20082;-71
2022/06/06 11:34:19;;;;;;;3.90;1.58;;;;;;;;;;5042535;28;20036;-71
2022/06/06 11:37:39;;;;;;;5.00;1.50;;;;;;;;;;5041409;28;20037;-71
2022/06/06 11:40:32;;;;;;;2.33;1.38;;;;;;;;;;5017133;28;20061;-71
2022/06/06 11:43:35;;;;;;;1.88;1.33;;;;;;;;;;5044304;28;20393;-69
2022/06/06 11:46:31;;;;;;;1.67;1.42;;;;;;;;;;5026051;28;20040;-71
2022/06/06 11:49:25;;;;;;;2.10;1.48;;;;;;;;;;5044315;28;20033;-70
2022/06/06 11:52:24;;;;;;;2.00;1.65;;;;;;;;;;5042784;28;20036;-70
2022/06/06 11:55:01;;;;;;;8.20;2.50;;;;;;;;;;5043945;28;20079;-70
2022/06/06 11:57:56;;;;;;;2.22;1.38;;;;;;;;;;5043641;28;20033;-70
2022/06/06 12:00:46;;;;;;;6.25;4.70;;;;;;;;;;5016878;28;20056;-70
2022/06/06 12:03:40;;;;;;;1.75;1.48;;;;;;;;;;5024387;28;20409;-70
2022/06/06 12:06:32;;;;;;;3.45;1.70;;;;;;;;;;5043553;28;20460;-69
2022/06/06 12:09:16;;;;;;;1.75;1.60;;;;;;;;;;5043709;28;20182;-69
2022/06/06 12:12:03;;;;;;;2.95;1.92;;;;;;;;;;5042096;28;20025;-69
2022/06/06 12:15:01;;;;;;;1.60;1.27;;;;;;;;;;5041201;28;20048;-68
2022/06/06 12:17:50;;;;;;;2.40;1.70;;;;;;;;;;5042685;28;20503;-70
2022/06/06 12:20:50;;;;;;;3.03;1.60;;;;;;;;;;5042452;28;20055;-70
2022/06/06 12:23:29;;;;;;;3.90;1.67;;;;;;;;;;5042190;28;20309;-69
2022/06/06 12:25:57;;;;;;;1.60;1.33;;;;;;;;;;5043022;28;20041;-69
2022/06/06 12:28:45;;;;;;;3.65;1.63;;;;;;;;;;5038728;28;20522;-68
2022/06/06 12:31:34;;;;;;;2.28;1.42;;;;;;;;;;5039196;28;20052;-69
2022/06/06 12:34:28;;;;;;;1.73;1.48;;;;;;;;;;5043166;28;20032;-69
2022/06/06 12:37:11;;;;;;;2.38;1.50;;;;;;;;;;5042664;28;20045;-69
2022/06/06 12:39:48;;;;;;;1.83;1.45;;;;;;;;;;5042980;28;20033;-70
2022/06/06 12:42:17;;;;;;;2.83;1.63;;;;;;;;;;5042440;28;20043;-69
2022/06/06 12:45:09;;;;;;;24.77;6.18;;;;;;;;;;5042942;28;20476;-68
2022/06/06 12:47:54;;;;;;;7.00;3.20;;;;;;;;;;5024930;28;20043;-70
2022/06/06 12:50:20;;;;;;;31.45;9.27;;;;;;;;;;5041392;28;20519;-71
2022/06/06 12:53:23;;;;;;;2.38;1.67;;;;;;;;;;5042679;28;20040;-71
2022/06/06 12:58:55;;;;;;;3.72;1.40;;;;;;;;;;5042255;28;20040;-71
2022/06/06 13:01:37;;;;;;;2.20;1.45;;;;;;;;;;5041748;28;20143;-71
2022/06/06 13:04:18;;;;;;;3.80;1.60;;;;;;;;;;5042375;28;20037;-71
2022/06/06 13:07:05;;;;;;;4.30;1.60;;;;;;;;;;5042243;28;20389;-71
2022/06/06 13:09:52;;;;;;;2.88;1.48;;;;;;;;;;5042094;28;20051;-71
2022/06/06 13:12:45;;;;;;;4.25;1.48;;;;;;;;;;5041856;28;20033;-70
2022/06/06 13:15:18;;;;;;;7.40;1.50;;;;;;;;;;5042386;28;20076;-70
2022/06/06 13:18:34;;;;;;;3.75;2.25;;;;;;;;;;5041565;28;20412;-70
2022/06/06 13:21:17;;;;;;;2.58;1.50;;;;;;;;;;4985795;28;20047;-70
2022/06/06 13:24:12;;;;;;;4.15;1.70;;;;;;;;;;5040760;28;20037;-70
2022/06/06 13:26:53;;;;;;;3.83;1.70;;;;;;;;;;5040428;28;20036;-70
2022/06/06 13:29:36;;;;;;;2.38;1.58;;;;;;;;;;5041473;28;20043;-71
2022/06/06 13:32:07;;;;;;;4.68;2.10;;;;;;;;;;5040174;28;20397;-71
2022/06/06 13:35:00;;;;;;;2.13;1.45;;;;;;;;;;5039736;28;20029;-71
2022/06/06 13:37:41;;;;;;;3.30;1.70;;;;;;;;;;5040540;28;20036;-71
2022/06/06 13:40:21;;;;;;;3.57;1.47;;;;;;;;;;5040531;28;20683;-71
2022/06/06 13:42:55;;;;;;;2.88;1.58;;;;;;;;;;5038448;28;20279;-71
2022/06/06 13:45:39;;;;;;;1.67;1.40;;;;;;;;;;5040166;28;20049;-71
2022/06/06 13:48:13;;;;;;;1.90;1.50;;;;;;;;;;5040830;28;20508;-72
2022/06/06 13:50:47;;;;;;;3.67;1.88;;;;;;;;;;5039807;28;20444;-72
2022/06/06 13:53:30;;;;;;;2.90;1.50;;;;;;;;;;5040052;28;20115;-73
2022/06/06 13:56:20;;;;;;;2.67;1.80;;;;;;;;;;5039200;28;20060;-73
2022/06/06 13:59:06;;;;;;;2.55;1.80;;;;;;;;;;5039958;28;20481;-73
2022/06/06 14:01:40;;;;;;;2.03;1.50;;;;;;;;;;5028549;28;20056;-72
2022/06/06 14:04:06;;;;;;;1.50;1.40;;;;;;;;;;5021407;28;20048;-73
2022/06/06 14:06:41;;;;;;;1.90;1.60;;;;;;;;;;5039873;28;20117;-72
2022/06/06 14:09:07;;;;;;;2.03;1.50;;;;;;;;;;5040696;28;20040;-72
2022/06/06 14:11:47;;;;;;;2.35;1.55;;;;;;;;;;5039007;28;20103;-73
2022/06/06 14:14:16;;;;;;;4.30;1.50;;;;;;;;;;5040489;28;20545;-72
2022/06/06 14:16:52;;;;;;;2.15;1.52;;;;;;;;;;5039814;28;20242;-72
2022/06/06 14:19:25;;;;;;;2.88;1.58;;;;;;;;;;5039466;28;20120;-73
2022/06/06 14:21:54;;;;;;;3.55;1.52;;;;;;;;;;5038675;28;20307;-72
2022/06/06 14:24:22;;;;;;;1.70;1.40;;;;;;;;;;5040387;28;20107;-70
2022/06/06 14:27:06;;;;;;;3.03;1.70;;;;;;;;;;5039108;28;20036;-70
2022/06/06 14:29:57;;;;;;;2.03;1.50;;;;;;;;;;5040344;28;20439;-70
2022/06/06 14:32:49;;;;;;;2.13;1.50;;;;;;;;;;5039190;28;20044;-70
2022/06/06 14:35:14;;;;;;;2.10;1.58;;;;;;;;;;5039465;28;20036;-70
2022/06/06 14:37:41;;;;;;;2.95;1.50;;;;;;;;;;5039533;28;20025;-70
2022/06/06 14:40:10;;;;;;;2.58;1.33;;;;;;;;;;5039077;28;20040;-69
2022/06/06 14:42:38;;;;;;;2.47;1.55;;;;;;;;;;5039952;28;20110;-69
2022/06/06 14:45:32;;;;;;;1.60;1.50;;;;;;;;;;5039903;28;20052;-69
2022/06/06 14:48:02;;;;;;;4.50;1.80;;;;;;;;;;5035168;28;20075;-68
2022/06/06 14:50:50;;;;;;;1.90;1.50;;;;;;;;;;5040252;28;20037;-70
2022/06/06 14:53:15;;;;;;;2.25;1.50;;;;;;;;;;5040944;28;20040;-71
2022/06/06 14:55:45;;;;;;;5.80;1.60;;;;;;;;;;5043215;28;20044;-71
2022/06/06 14:58:13;;;;;;;1.60;1.50;;;;;;;;;;5043831;28;20040;-71
2022/06/06 15:00:50;;;;;;;2.05;1.70;;;;;;;;;;5043236;28;20033;-70
2022/06/06 15:03:16;;;;;;;2.97;1.63;;;;;;;;;;5042497;28;20036;-71
2022/06/06 15:05:43;;;;;;;3.83;1.60;;;;;;;;;;5043216;28;20509;-71
2022/06/06 15:08:32;;;;;;;2.85;1.80;;;;;;;;;;5042532;28;20099;-71
2022/06/06 15:11:04;;;;;;;3.53;1.77;;;;;;;;;;5024401;28;20119;-71
2022/06/06 15:13:31;;;;;;;;;;;;;;;;;;5025820;28;20037;-71
2022/06/06 15:16:00;;;;;;;3.13;1.48;;;;;;;;;;5043188;28;19970;-71
2022/06/06 15:18:30;;;;;;;2.08;1.50;;;;;;;;;;5026244;28;20071;-71
2022/06/06 15:20:58;;;;;;;3.90;1.80;;;;;;;;;;5025225;28;20043;-69
2022/06/06 15:23:28;;;;;;;6.13;2.10;;;;;;;;;;5044289;28;20086;-70
2022/06/06 15:26:05;;;;;;;1.90;1.50;;;;;;;;;;5044153;28;20064;-70
2022/06/06 15:28:40;;;;;;;4.30;1.73;;;;;;;;;;5026695;28;20527;-71
2022/06/06 15:31:17;;;;;;;5.47;1.90;;;;;;;;;;5042932;28;20043;-71
2022/06/06 15:34:11;;;;;;;2.47;1.35;;;;;;;;;;5049246;28;20033;-73
2022/06/06 15:37:03;;;;;;;1.85;1.40;;;;;;;;;;5044759;28;20121;-71
2022/06/06 15:39:42;;;;;;;3.38;1.80;;;;;;;;;;5047383;28;20028;-71
2022/06/06 15:42:42;;;;;;;2.35;1.30;;;;;;;;;;5026984;28;20033;-72
2022/06/06 15:45:36;;;;;;;4.82;1.60;;;;;;;;;;5044995;28;20029;-71
2022/06/06 15:48:13;;;;;;;2.00;1.50;;;;;;;;;;5043792;28;20090;-71
2022/06/06 15:50:52;;;;;;;4.03;1.50;;;;;;;;;;5043666;28;20094;-71
2022/06/06 15:53:51;;;;;;;1.50;1.40;;;;;;;;;;5043240;28;20035;-70
2022/06/06 15:56:22;;;;;;;1.50;1.40;;;;;;;;;;5043159;28;20083;-71
2022/06/06 15:58:55;;;;;;;1.98;1.65;;;;;;;;;;5026657;28;20508;-71
2022/06/06 16:01:33;;;;;;;1.50;1.40;;;;;;;;;;5043202;28;20029;-72
2022/06/06 16:04:13;;;;;;;2.50;1.30;;;;;;;;;;5045845;28;20465;-70
2022/06/06 16:06:41;;;;;;;2.33;1.63;;;;;;;;;;5043072;28;20048;-70
2022/06/06 16:09:31;;;;;;;1.88;1.52;;;;;;;;;;5026245;28;20037;-71
2022/06/06 16:12:20;;;;;;;3.42;1.38;;;;;;;;;;5043310;28;20024;-71
2022/06/06 16:15:01;;;;;;;2.95;1.50;;;;;;;;;;5043066;28;20159;-71
2022/06/06 16:17:38;;;;;;;2.70;1.50;;;;;;;;;;5042620;28;20119;-71